sensor_id;sensor_type;location;lat;lon;timestamp;P1;durP1;ratioP1;P2;durP2;ratioP2
20104;SDS011;10212;42.714;23.310;2023-04-29T00:10:56;10.07;;;6.30;;
20104;SDS011;10212;42.714;23.310;2023-04-29T00:30:57;12.00;;;7.43;;
20104;SDS011;10212;42.714;23.310;2023-04-29T00:50:58;12.98;;;7.80;;
20104;SDS011;10212;42.714;23.310;2023-04-29T01:11:03;13.07;;;7.68;;
20104;SDS011;10212;42.714;23.310;2023-04-29T01:21:08;12.10;;;7.55;;
20104;SDS011;10212;42.714;23.310;2023-04-29T01:51:35;17.88;;;8.07;;
20104;SDS011;10212;42.714;23.310;2023-04-29T02:11:36;11.80;;;6.32;;
20104;SDS011;10212;42.714;23.310;2023-04-29T02:31:39;9.43;;;5.72;;
20104;SDS011;10212;42.714;23.310;2023-04-29T02:51:41;13.57;;;7.80;;
20104;SDS011;10212;42.714;23.310;2023-04-29T03:11:42;13.25;;;7.03;;
20104;SDS011;10212;42.714;23.310;2023-04-29T03:31:43;13.52;;;7.43;;
20104;SDS011;10212;42.714;23.310;2023-04-29T03:51:45;11.65;;;6.35;;
20104;SDS011;10212;42.714;23.310;2023-04-29T04:11:46;10.63;;;6.00;;
20104;SDS011;10212;42.714;23.310;2023-04-29T04:31:47;12.77;;;6.28;;
20104;SDS011;10212;42.714;23.310;2023-04-29T04:51:48;16.30;;;9.10;;
20104;SDS011;10212;42.714;23.310;2023-04-29T05:11:48;17.00;;;8.95;;
20104;SDS011;10212;42.714;23.310;2023-04-29T05:31:49;17.38;;;8.68;;
20104;SDS011;10212;42.714;23.310;2023-04-29T05:41:50;15.65;;;8.68;;
20104;SDS011;10212;42.714;23.310;2023-04-29T06:01:50;15.70;;;8.18;;
20104;SDS011;10212;42.714;23.310;2023-04-29T06:11:51;9.60;;;6.53;;
20104;SDS011;10212;42.714;23.310;2023-04-29T06:21:51;15.68;;;6.68;;
20104;SDS011;10212;42.714;23.310;2023-04-29T06:31:52;8.70;;;5.95;;
20104;SDS011;10212;42.714;23.310;2023-04-29T06:41:53;13.45;;;6.47;;
20104;SDS011;10212;42.714;23.310;2023-04-29T06:51:53;17.27;;;8.65;;
20104;SDS011;10212;42.714;23.310;2023-04-29T07:01:54;14.10;;;7.47;;
20104;SDS011;10212;42.714;23.310;2023-04-29T07:11:54;16.45;;;8.00;;
20104;SDS011;10212;42.714;23.310;2023-04-29T07:21:55;12.07;;;7.15;;
20104;SDS011;10212;42.714;23.310;2023-04-29T07:31:55;14.18;;;7.65;;
20104;SDS011;10212;42.714;23.310;2023-04-29T07:41:56;13.80;;;8.57;;
20104;SDS011;10212;42.714;23.310;2023-04-29T07:51:56;13.63;;;7.78;;
20104;SDS011;10212;42.714;23.310;2023-04-29T08:01:57;11.80;;;7.03;;
20104;SDS011;10212;42.714;23.310;2023-04-29T08:11:57;18.17;;;7.13;;
20104;SDS011;10212;42.714;23.310;2023-04-29T08:21:58;9.95;;;5.05;;
20104;SDS011;10212;42.714;23.310;2023-04-29T08:32:00;13.23;;;4.95;;
20104;SDS011;10212;42.714;23.310;2023-04-29T08:42:06;10.88;;;5.90;;
20104;SDS011;10212;42.714;23.310;2023-04-29T08:52:07;11.98;;;5.78;;
20104;SDS011;10212;42.714;23.310;2023-04-29T09:02:08;7.88;;;5.68;;
20104;SDS011;10212;42.714;23.310;2023-04-29T09:12:16;11.05;;;4.97;;
20104;SDS011;10212;42.714;23.310;2023-04-29T09:22:17;9.18;;;5.00;;
20104;SDS011;10212;42.714;23.310;2023-04-29T09:32:18;11.40;;;5.60;;
20104;SDS011;10212;42.714;23.310;2023-04-29T09:42:20;13.18;;;5.70;;
20104;SDS011;10212;42.714;23.310;2023-04-29T09:52:20;10.63;;;5.45;;
20104;SDS011;10212;42.714;23.310;2023-04-29T10:02:21;9.48;;;4.88;;
20104;SDS011;10212;42.714;23.310;2023-04-29T10:12:24;12.68;;;4.80;;
20104;SDS011;10212;42.714;23.310;2023-04-29T10:22:26;9.73;;;4.20;;
20104;SDS011;10212;42.714;23.310;2023-04-29T10:32:31;9.13;;;4.00;;
20104;SDS011;10212;42.714;23.310;2023-04-29T10:42:41;7.07;;;3.92;;
20104;SDS011;10212;42.714;23.310;2023-04-29T10:52:51;4.80;;;3.20;;
20104;SDS011;10212;42.714;23.310;2023-04-29T11:02:54;8.37;;;4.37;;
20104;SDS011;10212;42.714;23.310;2023-04-29T11:23:27;6.65;;;3.05;;
20104;SDS011;10212;42.714;23.310;2023-04-29T11:33:30;6.63;;;2.08;;
20104;SDS011;10212;42.714;23.310;2023-04-29T11:43:31;4.70;;;2.22;;
20104;SDS011;10212;42.714;23.310;2023-04-29T11:53:31;4.10;;;2.30;;
20104;SDS011;10212;42.714;23.310;2023-04-29T12:03:33;4.13;;;1.98;;
20104;SDS011;10212;42.714;23.310;2023-04-29T12:13:35;3.78;;;2.05;;
20104;SDS011;10212;42.714;23.310;2023-04-29T12:23:35;3.88;;;2.22;;
20104;SDS011;10212;42.714;23.310;2023-04-29T12:33:36;2.88;;;1.95;;
20104;SDS011;10212;42.714;23.310;2023-04-29T12:43:36;6.45;;;2.15;;
20104;SDS011;10212;42.714;23.310;2023-04-29T12:53:37;5.88;;;2.63;;
20104;SDS011;10212;42.714;23.310;2023-04-29T13:03:38;4.53;;;1.95;;
20104;SDS011;10212;42.714;23.310;2023-04-29T13:13:39;8.45;;;2.63;;
20104;SDS011;10212;42.714;23.310;2023-04-29T13:23:42;3.22;;;1.90;;
20104;SDS011;10212;42.714;23.310;2023-04-29T13:33:43;2.90;;;1.50;;
20104;SDS011;10212;42.714;23.310;2023-04-29T13:43:43;2.20;;;1.88;;
20104;SDS011;10212;42.714;23.310;2023-04-29T13:53:44;2.60;;;1.80;;
20104;SDS011;10212;42.714;23.310;2023-04-29T14:03:44;8.97;;;3.33;;
20104;SDS011;10212;42.714;23.310;2023-04-29T14:13:45;3.63;;;2.03;;
20104;SDS011;10212;42.714;23.310;2023-04-29T14:23:45;5.57;;;1.70;;
20104;SDS011;10212;42.714;23.310;2023-04-29T14:33:45;2.30;;;1.80;;
20104;SDS011;10212;42.714;23.310;2023-04-29T14:43:47;5.18;;;2.30;;
20104;SDS011;10212;42.714;23.310;2023-04-29T14:53:48;2.60;;;1.90;;
20104;SDS011;10212;42.714;23.310;2023-04-29T15:03:48;4.60;;;3.25;;
20104;SDS011;10212;42.714;23.310;2023-04-29T15:13:48;9.40;;;4.70;;
20104;SDS011;10212;42.714;23.310;2023-04-29T15:23:49;6.05;;;2.88;;
20104;SDS011;10212;42.714;23.310;2023-04-29T15:33:52;3.83;;;2.63;;
20104;SDS011;10212;42.714;23.310;2023-04-29T15:43:55;5.60;;;3.00;;
20104;SDS011;10212;42.714;23.310;2023-04-29T15:53:56;3.70;;;2.40;;
20104;SDS011;10212;42.714;23.310;2023-04-29T16:03:56;7.40;;;3.38;;
20104;SDS011;10212;42.714;23.310;2023-04-29T16:13:57;5.38;;;3.10;;
20104;SDS011;10212;42.714;23.310;2023-04-29T16:23:57;8.00;;;3.42;;
20104;SDS011;10212;42.714;23.310;2023-04-29T16:33:57;7.28;;;3.40;;
20104;SDS011;10212;42.714;23.310;2023-04-29T16:43:58;5.05;;;3.38;;
20104;SDS011;10212;42.714;23.310;2023-04-29T16:53:58;5.28;;;3.63;;
20104;SDS011;10212;42.714;23.310;2023-04-29T17:03:59;7.43;;;5.03;;
20104;SDS011;10212;42.714;23.310;2023-04-29T17:14:00;7.78;;;5.63;;
20104;SDS011;10212;42.714;23.310;2023-04-29T17:24:00;10.93;;;6.78;;
20104;SDS011;10212;42.714;23.310;2023-04-29T17:34:01;10.45;;;8.15;;
20104;SDS011;10212;42.714;23.310;2023-04-29T17:44:07;10.23;;;5.85;;
20104;SDS011;10212;42.714;23.310;2023-04-29T17:54:08;10.32;;;5.80;;
20104;SDS011;10212;42.714;23.310;2023-04-29T18:04:09;17.40;;;7.90;;
20104;SDS011;10212;42.714;23.310;2023-04-29T18:14:09;7.18;;;5.25;;
20104;SDS011;10212;42.714;23.310;2023-04-29T18:24:10;10.32;;;5.55;;
20104;SDS011;10212;42.714;23.310;2023-04-29T18:34:10;12.52;;;6.10;;
20104;SDS011;10212;42.714;23.310;2023-04-29T18:44:11;10.57;;;4.50;;
20104;SDS011;10212;42.714;23.310;2023-04-29T18:54:15;8.85;;;5.50;;
20104;SDS011;10212;42.714;23.310;2023-04-29T19:04:17;11.90;;;6.28;;
20104;SDS011;10212;42.714;23.310;2023-04-29T19:14:17;12.82;;;7.03;;
20104;SDS011;10212;42.714;23.310;2023-04-29T19:24:18;15.95;;;8.27;;
20104;SDS011;10212;42.714;23.310;2023-04-29T19:34:18;10.73;;;6.60;;
20104;SDS011;10212;42.714;23.310;2023-04-29T19:44:19;13.98;;;7.97;;
20104;SDS011;10212;42.714;23.310;2023-04-29T19:54:19;15.80;;;8.02;;
20104;SDS011;10212;42.714;23.310;2023-04-29T20:04:19;14.48;;;8.00;;
20104;SDS011;10212;42.714;23.310;2023-04-29T20:14:20;15.73;;;7.80;;
20104;SDS011;10212;42.714;23.310;2023-04-29T20:24:20;14.38;;;8.13;;
20104;SDS011;10212;42.714;23.310;2023-04-29T20:34:21;16.73;;;8.77;;
20104;SDS011;10212;42.714;23.310;2023-04-29T20:44:21;16.33;;;8.27;;
20104;SDS011;10212;42.714;23.310;2023-04-29T20:54:22;13.55;;;8.95;;
20104;SDS011;10212;42.714;23.310;2023-04-29T21:04:22;21.15;;;10.80;;
20104;SDS011;10212;42.714;23.310;2023-04-29T21:14:23;15.48;;;10.27;;
